Houston's Hourly Summary for Tuesday, May 15, 2018
Hour Temp
(f)
RH
(%)
Solar Rad.
(MJ/m2)
Rainfall
(in)
Wind
(mph)
5/15/2018 12:00 AM 72 85 0 0 0
5/15/2018 1:00 AM 71 90 0 0 0
5/15/2018 2:00 AM 69 93 0 0 0
5/15/2018 3:00 AM 68 99 0 0 0
5/15/2018 4:00 AM 67 99 0 0 0
5/15/2018 5:00 AM 67 99 0 0 0
5/15/2018 6:00 AM 65 99 0 0 0
5/15/2018 7:00 AM 65 99 0.04 0 0
5/15/2018 8:00 AM 68 92 0.55 0 0
5/15/2018 9:00 AM 75 70 1.27 0 0
5/15/2018 10:00 AM 80 58 2 0 0.01
5/15/2018 11:00 AM 83 47 2.2 0 0
5/15/2018 12:00 PM 84 45 2.8 0 0.01
5/15/2018 1:00 PM 87 33 3.35 0 2.66
5/15/2018 2:00 PM 88 33 3.38 0 3.13
5/15/2018 3:00 PM 90 33 3.12 0 4.16
5/15/2018 4:00 PM 91 33 2.73 0 3.65
5/15/2018 5:00 PM 90 34 1.99 0 5.12
5/15/2018 6:00 PM 90 33 1.66 0 5.7
5/15/2018 7:00 PM 88 33 0.95 0 5.23
5/15/2018 8:00 PM 84 41 0.23 0 4.04
5/15/2018 9:00 PM 80 50 0 0 1.97
5/15/2018 10:00 PM 78 56 0 0 1.23
5/15/2018 11:00 PM 76 62 0 0 0.27
Data Summary 78 63 26.27 0.00 1.55